Pagrindinis puslapis
METAR-TAF:

METAR-TAF

Oro uostai :

Santa Klara, Kuba

platuma: 22-29-32N, ilguma: 079-56-37W, Aukštis: 103 m

Dabartinis oras

Ataskaita buvo paskelbta 1 valandą ir 14 minutes, ne 18:50 UTC
Vėjas 8 kt iš Rytų, svyruoja nuo Rytų/Šiaurės Rytų ir Pietryčių
Temperatūra 31°C
Drėgmė 59%
Slėgis 1017 hPa
Matomumas: 9000 m
Su prošvaistėmis ne aukštis 2000 ft

METAR: MUSC 261850Z 10008KT 070V130 9000 BKN020 31/22 Q1017

Laikas: 16:04 (20:04 UTC)

Prognozė

Ataskaita buvo paskelbta 3 valandos ir 4 minutes, ne 17:00 UTC
Prognozė galioja nuo 26 metu 18 UTC su 27 metu 18 UTC
Vėjas 10 kt iš Rytų
Matomumas: 9000 m
Išsisklaidę debesys ne aukštis 2000 ft
Tapsmas
nuo 27 metu 01 UTC su 27 metu 03 UTC
Vėjas 3 kt nuo kintamojo kryptimis

TAF: MUSC 261700Z 2618/2718 08010KT 9000 SCT020 BECMG 2701/2703 VRB03KT

Orai ataskaitas ir orų prognozės (METAR, TAF).

turimą stotys yra geltonos ir raudonos taškus žemėlapyje.

Perkelti pele per norėdami pamatyti stoties vardą.

Tada spustelėkite, norėdami matyti oro stebėjimo ir prognozės.

Norėdami pakeisti žemėlapį: spustelėkite ant žalios mygtukų su juodo kryžiaus žemyn,; žalią mygtuką su brūkšneliu, jei norite nutolinti; arba žalių rodyklių gretimoms žemėlapius.


METAR-TAF: